Dayton, OH (45427)

10:22 PM EDT on July 07, 2015 (GMT -0400)
Sinclair Dayton Campus | | Change Station
CLOSE
Current Station
Personal Weather Station
Location: Dayton, OH
Elevation: 780 ft
Nearby Weather Stations

Elev 780 ft 39.76 °N, 84.20 °W | Updated 6 seconds ago

Overcast
Overcast
69.3 °F
Feels Like 69.3 °F
N
13.0
Wind Variable Wind from NW
Gusts 13.0 mph

Today
High -- | Low -- °F
--% Chance of Precip.
Yesterday
High -- | Low -- °F
Precip. -- in
6:16 AM 9:07 PM
Waning Gibbous, 59% visible
Pressure 29.99 in
Visibility 3.0 miles
Clouds Overcast 500 ft
Dew Point 67 °F
Humidity 93%
Rainfall 0.70 in
Snow Depth Not available.
UV 0.0 out of 12
Pollen 2.00 out of 12
Air Quality Not available.
Flu Activity Not available.
SPECI KDAY 080208Z 33015KT 3SM -RA BR OVC005 21/19 A2999 RMK AO2 P0001 T02060194

More Conditions Fewer Conditions

Pressure 29.99 in
Visibility 3.0 miles
Clouds Overcast 500 ft
Dew Point 67 °F
Humidity 93%
Rainfall 0.70 in
Snow Depth Not available.
UV 0.0 out of 12
Pollen 2.00 out of 12
Air Quality Not available.
Flu Activity Not available.
SPECI KDAY 080208Z 33015KT 3SM -RA BR OVC005 21/19 A2999 RMK AO2 P0001 T02060194

More Conditions Fewer Conditions

10-Day Weather Forecast

×

Almanac

Astronomy

Jul. 07, 2015 Rise Set
Actual Time
Civil Twilight
Nautical Twilight
Astronomical Twilight
Moon
Length of Visible Light
Length of Day
Tomorrow will be .
, % of the Moon is Illuminated

Today's Extremes

State Highs State Lows

Community

WunderPhotos

Upload Photos

1,836,013 photos uploaded!

WunderBlogs® & News

Nearby

Air Quality

  Air Quality AQ Index Pollutant
Not available.

Snow Depth

Station Depth Elevation

Earthquake Activity

City Distance Mag. Time & Date
Minimum magnitude displayed is 2.5.

Coastal Water Temperatures

Place Temperature

Stations

Nearby Weather Stations

Station Location Temp. Windchill Dew Point Humidity Wind Precip. Elev Updated Type